createdAt,value
2023-05-10T00:00:58.498Z,11.07
2023-05-10T00:03:25.693Z,12.15
2023-05-10T00:05:52.800Z,11.82
2023-05-10T00:08:19.921Z,12.13
2023-05-10T00:10:46.953Z,11.70
2023-05-10T00:13:14.270Z,12.38
2023-05-10T00:15:41.423Z,12.60
2023-05-10T00:18:08.595Z,12.05
2023-05-10T00:20:35.625Z,11.65
2023-05-10T00:23:02.594Z,12.98
2023-05-10T00:25:29.661Z,11.23
2023-05-10T00:27:58.296Z,12.18
2023-05-10T00:30:25.702Z,11.63
2023-05-10T00:32:53.118Z,11.13
2023-05-10T00:35:20.482Z,12.38
2023-05-10T00:37:48.844Z,11.77
2023-05-10T00:40:16.398Z,12.55
2023-05-10T00:42:47.904Z,11.20
2023-05-10T00:45:14.930Z,11.73
2023-05-10T00:47:42.125Z,12.35
2023-05-10T00:50:10.292Z,11.43
2023-05-10T00:52:37.548Z,11.98
2023-05-10T00:55:05.663Z,12.30
2023-05-10T00:57:32.840Z,11.20
2023-05-10T01:00:00.598Z,12.02
2023-05-10T01:02:28.480Z,12.13
2023-05-10T01:04:57.636Z,12.18
2023-05-10T01:07:24.731Z,12.23
2023-05-10T01:09:51.754Z,11.02
2023-05-10T01:12:19.020Z,11.25
2023-05-10T01:14:46.480Z,11.40
2023-05-10T01:17:14.655Z,12.50
2023-05-10T01:19:42.708Z,10.73
2023-05-10T01:22:29.463Z,11.10
2023-05-10T01:25:28.711Z,11.77
2023-05-10T01:28:07.721Z,11.10
2023-05-10T01:31:09.844Z,11.57
2023-05-10T01:34:00.266Z,10.82
2023-05-10T01:36:49.390Z,11.40
2023-05-10T01:39:31.386Z,11.32
2023-05-10T01:42:01.473Z,11.32
2023-05-10T01:44:51.956Z,11.90
2023-05-10T01:47:44.100Z,11.18
2023-05-10T01:50:18.317Z,11.75
2023-05-10T01:52:52.333Z,11.50
2023-05-10T01:55:22.203Z,10.52
2023-05-10T01:57:57.881Z,10.38
2023-05-10T02:00:26.153Z,11.38
2023-05-10T02:02:55.458Z,10.15
2023-05-10T02:05:23.624Z,10.77
2023-05-10T02:07:51.796Z,9.95
2023-05-10T02:10:20.762Z,10.32
2023-05-10T02:12:51.124Z,9.32
2023-05-10T02:15:24.239Z,9.70
2023-05-10T02:17:53.683Z,10.20
2023-05-10T02:20:22.082Z,10.38
2023-05-10T02:22:51.720Z,11.27
2023-05-10T02:25:21.367Z,10.93
2023-05-10T02:27:49.471Z,10.70
2023-05-10T02:30:18.116Z,9.52
2023-05-10T02:32:46.651Z,9.88
2023-05-10T02:35:14.476Z,9.43
2023-05-10T02:37:43.075Z,10.25
2023-05-10T02:40:12.000Z,9.15
2023-05-10T02:42:43.285Z,9.50
2023-05-10T02:45:14.468Z,9.02
2023-05-10T02:47:44.822Z,9.75
2023-05-10T02:50:12.204Z,9.93
2023-05-10T02:52:53.189Z,8.43
2023-05-10T02:55:23.816Z,8.65
2023-05-10T02:57:57.923Z,8.82
2023-05-10T03:00:26.634Z,9.55
2023-05-10T03:02:53.928Z,9.73
2023-05-10T03:05:21.627Z,7.97
2023-05-10T03:07:49.680Z,8.48
2023-05-10T03:10:17.172Z,9.07
2023-05-10T03:12:51.249Z,7.88
2023-05-10T03:15:45.694Z,8.52
2023-05-10T03:18:22.418Z,8.23
2023-05-10T03:20:52.092Z,7.88
2023-05-10T03:23:19.007Z,7.85
2023-05-10T03:25:49.526Z,7.45
2023-05-10T03:28:18.897Z,7.47
2023-05-10T03:30:47.793Z,7.93
2023-05-10T03:33:15.372Z,8.13
2023-05-10T03:35:46.996Z,7.93
2023-05-10T03:38:15.257Z,7.68
2023-05-10T03:40:42.404Z,7.53
2023-05-10T03:43:09.578Z,7.68
2023-05-10T03:45:36.801Z,6.97
2023-05-10T03:48:04.491Z,7.90
2023-05-10T03:50:31.814Z,8.15
2023-05-10T03:52:59.244Z,8.73
2023-05-10T03:55:28.186Z,7.63
2023-05-10T03:57:55.376Z,9.60
2023-05-10T04:00:23.673Z,8.63
2023-05-10T04:02:54.593Z,7.97
2023-05-10T04:05:21.740Z,6.47
2023-05-10T04:07:50.367Z,7.93
2023-05-10T04:10:17.941Z,7.68
2023-05-10T04:12:47.089Z,7.80
2023-05-10T04:15:14.482Z,7.18
2023-05-10T04:17:41.624Z,8.02
2023-05-10T04:20:09.461Z,6.88
2023-05-10T04:22:36.834Z,7.05
2023-05-10T04:25:04.275Z,6.97
2023-05-10T04:27:32.173Z,6.88
2023-05-10T04:29:59.200Z,7.15
2023-05-10T04:32:26.174Z,5.95
2023-05-10T04:34:54.186Z,6.93
2023-05-10T04:37:22.502Z,6.82
2023-05-10T04:39:49.639Z,5.75
2023-05-10T04:42:16.714Z,5.15
2023-05-10T04:44:43.885Z,5.00
2023-05-10T04:47:12.722Z,4.85
2023-05-10T04:49:40.172Z,5.30
2023-05-10T04:52:07.383Z,5.57
2023-05-10T04:54:34.521Z,5.30
2023-05-10T04:57:01.559Z,5.72
2023-05-10T04:59:28.563Z,4.93
2023-05-10T05:01:55.593Z,6.13
2023-05-10T05:04:24.522Z,5.70
2023-05-10T05:06:53.743Z,5.68
2023-05-10T05:09:21.075Z,5.25
2023-05-10T05:11:48.076Z,5.65
2023-05-10T05:14:15.090Z,5.25
2023-05-10T05:16:42.188Z,5.05
2023-05-10T05:19:09.261Z,4.88
2023-05-10T05:21:36.703Z,5.13
2023-05-10T05:24:03.926Z,5.43
2023-05-10T05:26:30.947Z,4.80
2023-05-10T05:28:58.085Z,5.07
2023-05-10T05:31:25.252Z,4.88
2023-05-10T05:33:52.759Z,4.55
2023-05-10T05:36:19.840Z,4.70
2023-05-10T05:38:46.826Z,4.55
2023-05-10T05:41:13.822Z,4.00
2023-05-10T05:43:40.877Z,3.90
2023-05-10T05:46:08.011Z,4.00
2023-05-10T05:48:35.061Z,3.83
2023-05-10T05:51:02.842Z,3.92
2023-05-10T05:53:30.423Z,4.10
2023-05-10T05:55:59.055Z,4.40
2023-05-10T05:58:27.024Z,3.70
2023-05-10T06:00:54.139Z,4.03
2023-05-10T06:03:21.774Z,3.40
2023-05-10T06:05:49.311Z,3.30
2023-05-10T06:08:16.510Z,3.28
2023-05-10T06:10:43.614Z,3.88
2023-05-10T06:13:11.049Z,3.47
2023-05-10T06:15:38.610Z,3.80
2023-05-10T06:18:06.653Z,3.67
2023-05-10T06:20:33.751Z,3.42
2023-05-10T06:23:00.833Z,3.55
2023-05-10T06:25:27.821Z,3.50
2023-05-10T06:27:58.509Z,3.30
2023-05-10T06:30:29.863Z,3.72
2023-05-10T06:32:58.200Z,3.60
2023-05-10T06:35:25.721Z,3.10
2023-05-10T06:37:52.962Z,3.20
2023-05-10T06:40:20.403Z,3.30
2023-05-10T06:42:51.376Z,3.53
2023-05-10T06:45:18.982Z,3.42
2023-05-10T06:47:46.971Z,3.72
2023-05-10T06:50:14.285Z,3.60
2023-05-10T06:52:41.401Z,3.90
2023-05-10T06:55:09.851Z,3.15
2023-05-10T06:57:37.220Z,3.45
2023-05-10T07:00:07.378Z,3.22
2023-05-10T07:02:35.290Z,2.90
2023-05-10T07:05:03.704Z,3.20
2023-05-10T07:07:32.737Z,3.20
2023-05-10T07:10:00.198Z,3.53
2023-05-10T07:12:27.594Z,3.22
2023-05-10T07:14:54.884Z,2.92
2023-05-10T07:17:21.989Z,3.05
2023-05-10T07:19:49.545Z,3.50
2023-05-10T07:22:17.921Z,2.95
2023-05-10T07:24:45.408Z,2.90
2023-05-10T07:27:12.549Z,2.72
2023-05-10T07:29:39.941Z,3.35
2023-05-10T07:32:07.385Z,3.35
2023-05-10T07:34:34.553Z,3.30
2023-05-10T07:37:02.415Z,3.13
2023-05-10T07:39:29.478Z,2.85
2023-05-10T07:41:56.883Z,2.53
2023-05-10T07:44:24.411Z,2.80
2023-05-10T07:46:51.786Z,3.00
2023-05-10T07:49:18.906Z,2.78
2023-05-10T07:51:46.024Z,3.00
2023-05-10T07:54:13.800Z,3.05
2023-05-10T07:56:45.797Z,3.50
2023-05-10T07:59:17.252Z,3.42
2023-05-10T08:01:45.642Z,3.17
2023-05-10T08:04:12.963Z,3.40
2023-05-10T08:06:40.970Z,3.25
2023-05-10T08:09:08.512Z,2.78
2023-05-10T08:11:36.285Z,2.42
2023-05-10T08:14:03.438Z,2.58
2023-05-10T08:16:30.540Z,2.53
2023-05-10T08:18:57.752Z,2.83
2023-05-10T08:21:25.057Z,2.50
2023-05-10T08:23:52.208Z,2.63
2023-05-10T08:26:19.256Z,2.10
2023-05-10T08:28:46.290Z,2.65
2023-05-10T08:31:13.340Z,2.75
2023-05-10T08:33:42.283Z,2.70
2023-05-10T08:36:10.884Z,2.58
2023-05-10T08:38:39.030Z,2.50
2023-05-10T08:41:07.235Z,2.92
2023-05-10T08:43:36.989Z,2.70
2023-05-10T08:46:06.455Z,2.60
2023-05-10T08:48:35.685Z,2.72
2023-05-10T08:51:04.828Z,2.83
2023-05-10T08:53:34.254Z,2.30
2023-05-10T08:56:02.954Z,2.55
2023-05-10T08:58:30.049Z,2.60
2023-05-10T09:00:58.194Z,3.03
2023-05-10T09:03:25.369Z,3.00
2023-05-10T09:05:52.920Z,3.03
2023-05-10T09:08:21.312Z,2.30
2023-05-10T09:10:49.790Z,2.90
2023-05-10T09:13:18.204Z,3.67
2023-05-10T09:15:46.619Z,3.30
2023-05-10T09:18:14.217Z,3.38
2023-05-10T09:20:41.990Z,3.45
2023-05-10T09:23:09.390Z,3.65
2023-05-10T09:25:36.736Z,2.50
2023-05-10T09:28:08.626Z,2.47
2023-05-10T09:30:36.483Z,2.83
2023-05-10T09:33:03.966Z,2.50
2023-05-10T09:35:33.498Z,2.60
2023-05-10T09:38:05.426Z,2.47
2023-05-10T09:40:33.139Z,2.63
2023-05-10T09:43:07.038Z,2.17
2023-05-10T09:45:38.282Z,2.35
2023-05-10T09:48:07.177Z,2.95
2023-05-10T09:50:35.286Z,2.30
2023-05-10T09:53:04.693Z,2.55
2023-05-10T09:55:45.869Z,2.58
2023-05-10T09:58:16.876Z,2.47
2023-05-10T10:00:45.873Z,2.20
2023-05-10T10:03:18.413Z,2.65
2023-05-10T10:05:47.164Z,2.50
2023-05-10T10:08:15.753Z,2.67
2023-05-10T10:10:46.474Z,2.42
2023-05-10T10:13:13.918Z,2.38
2023-05-10T10:15:41.086Z,2.72
2023-05-10T10:18:13.529Z,2.50
2023-05-10T10:20:41.191Z,2.50
2023-05-10T10:23:09.391Z,2.72
2023-05-10T10:25:36.988Z,2.40
2023-05-10T10:28:16.868Z,2.30
2023-05-10T10:30:49.650Z,2.40
2023-05-10T10:33:35.338Z,2.35
2023-05-10T10:36:04.731Z,2.58
2023-05-10T10:38:39.591Z,2.88
2023-05-10T10:41:13.276Z,2.30
2023-05-10T10:43:40.375Z,2.42
2023-05-10T10:46:18.896Z,2.78
2023-05-10T10:49:09.681Z,3.10
2023-05-10T10:51:40.803Z,2.28
2023-05-10T10:54:11.815Z,2.13
2023-05-10T10:56:39.364Z,2.40
2023-05-10T10:59:06.415Z,2.40
2023-05-10T11:01:36.620Z,2.70
2023-05-10T11:04:06.721Z,2.65
2023-05-10T11:06:35.962Z,2.65
2023-05-10T11:09:11.228Z,2.35
2023-05-10T11:11:52.015Z,2.25
2023-05-10T11:14:23.598Z,2.70
2023-05-10T11:16:51.395Z,2.22
2023-05-10T11:19:19.519Z,2.30
2023-05-10T11:22:14.283Z,2.38
2023-05-10T11:24:41.410Z,1.90
2023-05-10T11:27:08.925Z,2.00
2023-05-10T11:29:36.217Z,2.33
2023-05-10T11:32:05.572Z,2.13
2023-05-10T11:34:36.389Z,2.33
2023-05-10T11:37:03.461Z,2.40
2023-05-10T11:39:34.717Z,2.55
2023-05-10T11:42:02.013Z,2.40
2023-05-10T11:44:35.580Z,2.67
2023-05-10T11:47:03.442Z,2.15
2023-05-10T11:49:30.872Z,2.47
2023-05-10T11:52:08.286Z,2.33
2023-05-10T11:54:38.638Z,2.50
2023-05-10T11:57:06.036Z,2.30
2023-05-10T11:59:33.053Z,2.17
2023-05-10T12:02:00.486Z,2.20
2023-05-10T12:04:30.657Z,2.60
2023-05-10T12:06:58.076Z,3.10
2023-05-10T12:09:39.742Z,3.20
2023-05-10T12:12:10.191Z,2.80
2023-05-10T12:14:37.736Z,3.05
2023-05-10T12:17:04.758Z,3.08
2023-05-10T12:19:39.630Z,3.05
2023-05-10T12:22:07.374Z,2.65
2023-05-10T12:24:40.241Z,2.70
2023-05-10T12:27:09.435Z,2.60
2023-05-10T12:29:37.097Z,3.10
2023-05-10T12:32:04.364Z,2.70
2023-05-10T12:34:34.907Z,2.50
2023-05-10T12:37:03.542Z,2.50
2023-05-10T12:39:45.083Z,2.78
2023-05-10T12:42:12.868Z,2.40
2023-05-10T12:44:40.942Z,2.63
2023-05-10T12:47:08.409Z,2.80
2023-05-10T12:49:35.546Z,2.42
2023-05-10T12:52:02.856Z,2.70
2023-05-10T12:54:29.999Z,2.70
2023-05-10T12:56:56.997Z,2.55
2023-05-10T12:59:24.059Z,2.47
2023-05-10T13:01:51.222Z,2.92
2023-05-10T13:04:18.315Z,2.95
2023-05-10T13:06:45.532Z,3.88
2023-05-10T13:09:12.656Z,3.30
2023-05-10T13:11:39.869Z,2.50
2023-05-10T13:14:06.871Z,2.90
2023-05-10T13:16:34.289Z,3.00
2023-05-10T13:19:01.445Z,3.38
2023-05-10T13:21:29.002Z,2.72
2023-05-10T13:23:56.649Z,3.28
2023-05-10T13:26:23.644Z,2.85
2023-05-10T13:28:52.794Z,2.97
2023-05-10T13:31:19.997Z,2.78
2023-05-10T13:33:47.116Z,2.67
2023-05-10T13:36:14.320Z,2.60
2023-05-10T13:38:41.378Z,2.65
2023-05-10T13:41:08.489Z,3.25
2023-05-10T13:43:36.147Z,2.55
2023-05-10T13:46:03.982Z,2.80
2023-05-10T13:48:31.214Z,2.88
2023-05-10T13:50:58.320Z,2.80
2023-05-10T13:53:25.684Z,2.80
2023-05-10T13:55:52.852Z,3.17
2023-05-10T13:58:20.334Z,3.35
2023-05-10T14:00:47.395Z,3.05
2023-05-10T14:03:14.459Z,2.75
2023-05-10T14:05:41.552Z,3.20
2023-05-10T14:08:10.435Z,3.17
2023-05-10T14:10:38.026Z,2.95
2023-05-10T14:13:05.205Z,3.72
2023-05-10T14:15:32.231Z,2.95
2023-05-10T14:17:59.579Z,2.50
2023-05-10T14:20:27.131Z,2.97
2023-05-10T14:22:54.096Z,2.53
2023-05-10T14:25:21.397Z,2.90
2023-05-10T14:27:48.416Z,2.58
2023-05-10T14:30:16.106Z,2.97
2023-05-10T14:32:43.334Z,3.10
2023-05-10T14:35:13.104Z,3.75
2023-05-10T14:37:40.660Z,3.20
2023-05-10T14:40:08.477Z,3.05
2023-05-10T14:42:36.062Z,2.75
2023-05-10T14:45:03.442Z,2.97
2023-05-10T14:47:32.681Z,3.22
2023-05-10T14:49:59.798Z,2.60
2023-05-10T14:52:26.957Z,3.00
2023-05-10T14:54:53.933Z,3.22
2023-05-10T14:57:20.943Z,4.05
2023-05-10T14:59:48.433Z,3.20
2023-05-10T15:02:16.392Z,2.90
2023-05-10T15:04:43.877Z,2.92
2023-05-10T15:07:15.385Z,2.80
2023-05-10T15:09:42.456Z,3.10
2023-05-10T15:12:09.447Z,3.40
2023-05-10T15:14:37.468Z,3.20
2023-05-10T15:17:07.389Z,3.22
2023-05-10T15:19:34.452Z,3.00
2023-05-10T15:22:01.440Z,3.25
2023-05-10T15:24:28.611Z,3.38
2023-05-10T15:26:56.117Z,3.25
2023-05-10T15:29:23.297Z,3.40
2023-05-10T15:31:52.108Z,3.13
2023-05-10T15:34:19.768Z,3.30
2023-05-10T15:36:47.167Z,4.35
2023-05-10T15:39:14.241Z,4.05
2023-05-10T15:41:41.571Z,4.15
2023-05-10T15:44:08.572Z,3.67
2023-05-10T15:46:35.868Z,3.08
2023-05-10T15:49:02.984Z,3.33
2023-05-10T15:51:30.129Z,3.70
2023-05-10T15:54:06.404Z,3.53
2023-05-10T15:56:34.663Z,3.53
2023-05-10T15:59:01.816Z,3.05
2023-05-10T16:01:29.314Z,3.30
2023-05-10T16:03:56.672Z,3.15
2023-05-10T16:06:23.626Z,3.17
2023-05-10T16:08:51.373Z,3.40
2023-05-10T16:11:19.016Z,3.75
2023-05-10T16:13:46.156Z,3.22
2023-05-10T16:16:13.411Z,3.38
2023-05-10T16:18:40.652Z,5.05
2023-05-10T16:21:07.806Z,3.70
2023-05-10T16:23:34.881Z,3.80
2023-05-10T16:26:02.323Z,3.60
2023-05-10T16:28:29.295Z,3.40
2023-05-10T16:30:56.344Z,3.60
2023-05-10T16:33:23.401Z,3.25
2023-05-10T16:35:50.434Z,3.85
2023-05-10T16:38:17.431Z,3.20
2023-05-10T16:40:44.447Z,3.20
2023-05-10T16:43:11.431Z,3.00
2023-05-10T16:45:38.581Z,3.40
2023-05-10T16:48:06.461Z,3.50
2023-05-10T16:50:33.577Z,3.70
2023-05-10T16:53:00.831Z,5.25
2023-05-10T16:55:28.004Z,5.13
2023-05-10T16:57:59.866Z,7.18
2023-05-10T17:00:27.519Z,7.60
2023-05-10T17:02:55.083Z,8.05
2023-05-10T17:05:22.838Z,7.25
2023-05-10T17:07:50.644Z,6.68
2023-05-10T17:10:18.114Z,7.07
2023-05-10T17:12:45.752Z,7.20
2023-05-10T17:15:13.143Z,7.28
2023-05-10T17:17:40.402Z,7.85
2023-05-10T17:20:08.463Z,8.02
2023-05-10T17:22:36.024Z,7.85
2023-05-10T17:25:04.333Z,6.85
2023-05-10T17:27:32.191Z,6.93
2023-05-10T17:29:59.731Z,5.97
2023-05-10T17:32:27.056Z,6.20
2023-05-10T17:34:54.130Z,6.40
2023-05-10T17:37:21.201Z,6.28
2023-05-10T17:39:48.254Z,6.35
2023-05-10T17:42:17.673Z,6.55
2023-05-10T17:44:44.661Z,6.38
2023-05-10T17:47:11.734Z,6.95
2023-05-10T17:49:39.914Z,6.78
2023-05-10T17:52:07.539Z,7.28
2023-05-10T17:54:34.933Z,7.18
2023-05-10T17:57:02.198Z,7.35
2023-05-10T17:59:29.469Z,6.85
2023-05-10T18:01:56.643Z,7.63
2023-05-10T18:04:23.947Z,7.20
2023-05-10T18:06:51.124Z,7.43
2023-05-10T18:09:18.418Z,7.40
2023-05-10T18:11:45.460Z,6.93
2023-05-10T18:14:12.533Z,6.20
2023-05-10T18:16:39.580Z,6.13
2023-05-10T18:19:06.702Z,6.80
2023-05-10T18:21:33.996Z,7.20
2023-05-10T18:24:01.822Z,7.95
2023-05-10T18:26:29.022Z,9.32
2023-05-10T18:28:56.020Z,8.40
2023-05-10T18:31:23.955Z,8.77
2023-05-10T18:33:51.131Z,8.20
2023-05-10T18:36:18.245Z,9.45
2023-05-10T18:38:45.773Z,9.07
2023-05-10T18:41:14.608Z,8.57
2023-05-10T18:43:42.812Z,8.15
2023-05-10T18:46:09.901Z,8.10
2023-05-10T18:48:36.942Z,7.63
2023-05-10T18:51:04.411Z,8.30
2023-05-10T18:53:32.666Z,8.20
2023-05-10T18:56:00.220Z,8.10
2023-05-10T18:58:28.356Z,8.60
2023-05-10T19:00:55.730Z,8.50
2023-05-10T19:03:22.987Z,8.40
2023-05-10T19:05:50.095Z,8.98
2023-05-10T19:08:17.598Z,8.50
2023-05-10T19:10:45.911Z,8.52
2023-05-10T19:13:13.040Z,7.90
2023-05-10T19:15:40.921Z,8.05
2023-05-10T19:18:08.727Z,7.93
2023-05-10T19:20:38.163Z,8.43
2023-05-10T19:23:10.037Z,10.23
2023-05-10T19:25:37.591Z,11.25
2023-05-10T19:28:04.697Z,11.75
2023-05-10T19:30:31.906Z,11.60
2023-05-10T19:32:59.000Z,11.00
2023-05-10T19:35:26.179Z,11.68
2023-05-10T19:37:53.325Z,12.07
2023-05-10T19:40:20.451Z,12.98
2023-05-10T19:42:47.699Z,12.18
2023-05-10T19:45:15.997Z,11.30
2023-05-10T19:47:43.562Z,11.85
2023-05-10T19:50:12.512Z,12.23
2023-05-10T19:52:39.914Z,12.50
2023-05-10T19:55:08.027Z,13.07
2023-05-10T19:57:35.146Z,13.05
2023-05-10T20:00:02.609Z,12.52
2023-05-10T20:02:38.629Z,11.45
2023-05-10T20:05:05.987Z,11.10
2023-05-10T20:07:33.018Z,10.70
2023-05-10T20:10:00.160Z,10.73
2023-05-10T20:12:27.939Z,10.82
2023-05-10T20:14:54.961Z,10.60
2023-05-10T20:17:22.084Z,10.98
2023-05-10T20:19:49.150Z,10.52
2023-05-10T20:22:16.192Z,10.27
2023-05-10T20:24:43.242Z,10.52
2023-05-10T20:27:10.240Z,11.23
2023-05-10T20:29:37.218Z,11.27
2023-05-10T20:32:04.402Z,10.05
2023-05-10T20:34:31.573Z,10.40
2023-05-10T20:36:58.713Z,10.43
2023-05-10T20:39:25.873Z,10.70
2023-05-10T20:41:54.710Z,10.43
2023-05-10T20:44:21.712Z,10.90
2023-05-10T20:46:48.924Z,11.82
2023-05-10T20:49:16.009Z,11.07
2023-05-10T20:51:43.145Z,12.00
2023-05-10T20:54:10.282Z,13.05
2023-05-10T20:56:37.355Z,12.15
2023-05-10T20:59:04.456Z,12.32
2023-05-10T21:01:31.994Z,13.45
2023-05-10T21:03:59.112Z,12.77
2023-05-10T21:06:26.410Z,12.38
2023-05-10T21:08:53.474Z,13.25
2023-05-10T21:11:20.907Z,12.73
2023-05-10T21:13:49.055Z,14.02
2023-05-10T21:16:16.127Z,13.20
2023-05-10T21:18:43.281Z,12.82
2023-05-10T21:21:10.386Z,12.32
2023-05-10T21:23:37.421Z,11.80
2023-05-10T21:26:04.972Z,12.82
2023-05-10T21:28:32.078Z,11.88
2023-05-10T21:30:59.123Z,11.85
2023-05-10T21:33:26.172Z,12.35
2023-05-10T21:35:53.256Z,11.98
2023-05-10T21:38:20.347Z,12.45
2023-05-10T21:40:47.388Z,11.95
2023-05-10T21:43:14.437Z,12.90
2023-05-10T21:45:41.503Z,11.68
2023-05-10T21:48:08.604Z,11.45
2023-05-10T21:50:35.705Z,12.25
2023-05-10T21:53:03.055Z,11.45
2023-05-10T21:55:30.092Z,10.93
2023-05-10T21:57:58.751Z,11.52
2023-05-10T22:00:26.612Z,11.27
2023-05-10T22:02:53.860Z,11.43
2023-05-10T22:05:21.333Z,11.55
2023-05-10T22:07:48.296Z,12.13
2023-05-10T22:10:15.722Z,11.27
2023-05-10T22:12:42.838Z,9.75
2023-05-10T22:15:10.958Z,9.95
2023-05-10T22:17:40.106Z,9.18
2023-05-10T22:20:08.776Z,8.93
2023-05-10T22:22:36.899Z,8.98
2023-05-10T22:25:07.344Z,9.25
2023-05-10T22:27:35.108Z,8.95
2023-05-10T22:30:02.929Z,6.85
2023-05-10T22:32:36.005Z,8.23
2023-05-10T22:35:03.468Z,8.05
2023-05-10T22:37:32.811Z,8.40
2023-05-10T22:39:59.884Z,7.45
2023-05-10T22:42:26.831Z,9.07
2023-05-10T22:44:53.883Z,8.05
2023-05-10T22:47:21.022Z,8.13
2023-05-10T22:49:48.518Z,8.48
2023-05-10T22:52:15.641Z,7.72
2023-05-10T22:54:42.811Z,7.80
2023-05-10T22:57:09.770Z,8.48
2023-05-10T22:59:36.795Z,7.68
2023-05-10T23:02:04.014Z,8.10
2023-05-10T23:04:31.122Z,7.65
2023-05-10T23:06:58.112Z,7.78
2023-05-10T23:09:25.075Z,7.45
2023-05-10T23:11:52.106Z,7.65
2023-05-10T23:14:19.149Z,7.72
2023-05-10T23:16:46.284Z,7.88
2023-05-10T23:19:13.380Z,8.52
2023-05-10T23:21:40.967Z,7.68
2023-05-10T23:24:08.694Z,8.32
2023-05-10T23:26:36.118Z,9.30
2023-05-10T23:29:03.125Z,8.65
2023-05-10T23:31:30.529Z,8.85
2023-05-10T23:33:57.583Z,8.10
2023-05-10T23:36:24.606Z,7.75
2023-05-10T23:38:51.630Z,8.43
2023-05-10T23:41:18.970Z,8.88
2023-05-10T23:43:45.969Z,7.85
2023-05-10T23:46:13.035Z,8.32
2023-05-10T23:48:40.097Z,9.18
2023-05-10T23:51:08.080Z,8.60
2023-05-10T23:53:35.184Z,8.75
2023-05-10T23:56:02.222Z,10.00
2023-05-10T23:58:29.675Z,9.27
